createdAt,value
2022-11-27T00:00:10.854Z,99753.77
2022-11-27T00:05:58.794Z,99748.05
2022-11-27T00:11:22.651Z,99747.91
2022-11-27T00:16:44.599Z,99746.05
2022-11-27T00:22:06.671Z,99752.08
2022-11-27T00:27:28.197Z,99754.91
2022-11-27T00:32:50.227Z,99754.64
2022-11-27T00:38:12.259Z,99758.22
2022-11-27T00:43:43.707Z,99759.81
2022-11-27T00:49:07.354Z,99764.56
2022-11-27T00:54:29.490Z,99761.83
2022-11-27T00:59:51.863Z,99762.52
2022-11-27T01:05:13.554Z,99762.71
2022-11-27T01:10:35.375Z,99761.60
2022-11-27T01:16:05.036Z,99764.52
2022-11-27T01:21:31.140Z,99762.75
2022-11-27T01:26:52.902Z,99758.59
2022-11-27T01:32:14.758Z,99755.89
2022-11-27T01:37:36.559Z,99752.59
2022-11-27T01:42:58.597Z,99752.63
2022-11-27T01:48:20.719Z,99755.23
2022-11-27T01:53:42.949Z,99755.42
2022-11-27T01:59:04.678Z,99758.64
2022-11-27T02:04:26.562Z,99756.56
2022-11-27T02:09:48.537Z,99754.63
2022-11-27T02:15:43.350Z,99755.10
2022-11-27T02:21:16.609Z,99759.08
2022-11-27T02:26:55.642Z,99760.05
2022-11-27T02:32:26.284Z,99757.77
2022-11-27T02:37:53.147Z,99761.38
2022-11-27T02:43:27.540Z,99764.59
2022-11-27T02:48:55.610Z,99759.55
2022-11-27T02:54:20.810Z,99762.73
2022-11-27T02:59:43.990Z,99764.16
2022-11-27T03:05:07.180Z,99767.59
2022-11-27T03:10:49.381Z,99767.27
2022-11-27T03:16:29.318Z,99767.78
2022-11-27T03:21:54.113Z,99766.50
2022-11-27T03:27:21.760Z,99769.17
2022-11-27T03:32:43.897Z,99766.65
2022-11-27T03:38:05.719Z,99761.38
2022-11-27T03:43:30.796Z,99757.48
2022-11-27T03:48:59.962Z,99756.06
2022-11-27T03:54:50.371Z,99758.36
2022-11-27T04:00:13.086Z,99760.70
2022-11-27T04:05:34.813Z,99764.72
2022-11-27T04:10:56.534Z,99762.83
2022-11-27T04:16:19.599Z,99757.97
2022-11-27T04:21:44.112Z,99753.36
2022-11-27T04:27:05.732Z,99756.86
2022-11-27T04:32:27.563Z,99765.23
2022-11-27T04:37:49.592Z,99766.71
2022-11-27T04:43:11.663Z,99772.02
2022-11-27T04:48:33.652Z,99774.22
2022-11-27T04:53:55.881Z,99769.41
2022-11-27T04:59:17.783Z,99767.25
2022-11-27T05:04:40.200Z,99765.98
2022-11-27T05:10:02.243Z,99766.70
2022-11-27T05:15:24.308Z,99762.88
2022-11-27T05:20:46.218Z,99755.65
2022-11-27T05:26:08.060Z,99746.38
2022-11-27T05:31:29.979Z,99746.13
2022-11-27T05:36:52.219Z,99747.16
2022-11-27T05:42:14.551Z,99742.02
2022-11-27T05:47:36.548Z,99749.17
2022-11-27T05:52:58.051Z,99752.16
2022-11-27T05:58:20.567Z,99749.46
2022-11-27T06:03:42.337Z,99749.44
2022-11-27T06:09:09.268Z,99751.61
2022-11-27T06:14:35.346Z,99754.21
2022-11-27T06:19:57.391Z,99746.48
2022-11-27T06:25:19.116Z,99751.73
2022-11-27T06:30:40.746Z,99749.70
2022-11-27T06:36:04.385Z,99749.02
2022-11-27T06:41:27.515Z,99753.23
2022-11-27T06:46:49.254Z,99757.68
2022-11-27T06:52:11.174Z,99765.58
2022-11-27T06:57:33.001Z,99765.09
2022-11-27T07:02:56.057Z,99764.88
2022-11-27T07:08:18.163Z,99768.80
2022-11-27T07:13:40.094Z,99776.51
2022-11-27T07:19:05.412Z,99770.77
2022-11-27T07:24:27.463Z,99775.57
2022-11-27T07:29:49.292Z,99774.92
2022-11-27T07:35:11.530Z,99772.02
2022-11-27T07:40:33.053Z,99776.06
2022-11-27T07:45:55.246Z,99779.08
2022-11-27T07:51:19.520Z,99783.30
2022-11-27T07:56:41.069Z,99785.75
2022-11-27T08:02:03.077Z,99782.46
2022-11-27T08:07:31.119Z,99789.04
2022-11-27T08:12:53.056Z,99789.15
2022-11-27T08:18:14.792Z,99792.95
2022-11-27T08:23:36.917Z,99787.70
2022-11-27T08:28:59.004Z,99788.56
2022-11-27T08:34:21.006Z,99788.32
2022-11-27T08:39:43.507Z,99782.09
2022-11-27T08:45:05.737Z,99787.06
2022-11-27T08:50:27.866Z,99785.19
2022-11-27T08:55:49.799Z,99780.77
2022-11-27T09:01:15.341Z,99780.19
2022-11-27T09:06:41.081Z,99780.77
2022-11-27T09:12:03.117Z,99785.20
2022-11-27T09:17:25.040Z,99789.48
2022-11-27T09:22:47.078Z,99786.51
2022-11-27T09:28:09.064Z,99789.47
2022-11-27T09:33:33.465Z,99785.27
2022-11-27T09:38:55.266Z,99786.56
2022-11-27T09:44:29.543Z,99784.67
2022-11-27T09:49:59.195Z,99781.71
2022-11-27T09:55:32.474Z,99773.52
2022-11-27T10:00:54.256Z,99768.30
2022-11-27T10:06:30.774Z,99760.50
2022-11-27T10:12:09.964Z,99749.04
2022-11-27T10:17:41.701Z,99743.24
2022-11-27T10:23:05.335Z,99737.99
2022-11-27T10:28:43.392Z,99733.66
2022-11-27T10:34:18.724Z,99728.05
2022-11-27T10:39:45.475Z,99726.04
2022-11-27T10:45:16.470Z,99717.27
2022-11-27T10:50:38.762Z,99716.92
2022-11-27T10:56:06.627Z,99718.59
2022-11-27T11:01:40.464Z,99712.64
2022-11-27T11:07:02.733Z,99709.17
2022-11-27T11:12:24.747Z,99707.98
2022-11-27T11:17:46.579Z,99700.98
2022-11-27T11:23:19.855Z,99690.48
2022-11-27T11:28:49.087Z,99689.91
2022-11-27T11:34:27.284Z,99681.48
2022-11-27T11:40:01.065Z,99673.20
2022-11-27T11:45:22.983Z,99672.34
2022-11-27T11:50:59.365Z,99667.68
2022-11-27T11:56:34.438Z,99658.28
2022-11-27T12:02:15.376Z,99654.91
2022-11-27T12:07:55.609Z,99649.87
2022-11-27T12:13:42.547Z,99641.41
2022-11-27T12:19:09.342Z,99640.51
2022-11-27T12:24:43.566Z,99635.83
2022-11-27T12:30:11.569Z,99630.07
2022-11-27T12:35:43.582Z,99631.73
2022-11-27T12:41:23.662Z,99637.95
2022-11-27T12:47:10.390Z,99632.91
2022-11-27T12:52:35.336Z,99633.02
2022-11-27T12:58:03.538Z,99632.20
2022-11-27T13:03:32.134Z,99628.27
2022-11-27T13:09:18.972Z,99626.98
2022-11-27T13:14:42.225Z,99630.45
2022-11-27T13:20:06.734Z,99630.05
2022-11-27T13:25:29.459Z,99624.88
2022-11-27T13:30:52.249Z,99621.08
2022-11-27T13:36:23.956Z,99620.05
2022-11-27T13:41:47.293Z,99623.85
2022-11-27T13:47:15.839Z,99623.94
2022-11-27T13:52:38.472Z,99626.11
2022-11-27T13:58:02.658Z,99623.61
2022-11-27T14:03:29.654Z,99619.41
2022-11-27T14:08:58.169Z,99621.39
2022-11-27T14:14:20.799Z,99617.55
2022-11-27T14:19:56.852Z,99614.48
2022-11-27T14:25:36.516Z,99617.47
2022-11-27T14:31:00.498Z,99617.58
2022-11-27T14:36:25.594Z,99617.83
2022-11-27T14:42:01.680Z,99614.63
2022-11-27T14:47:23.969Z,99617.20
2022-11-27T14:52:51.168Z,99611.86
2022-11-27T14:58:18.960Z,99611.50
2022-11-27T15:03:41.397Z,99609.81
2022-11-27T15:09:30.386Z,99608.83
2022-11-27T15:15:07.097Z,99598.55
2022-11-27T15:20:40.663Z,99592.66
2022-11-27T15:26:02.562Z,99589.18
2022-11-27T15:31:38.771Z,99580.14
2022-11-27T15:37:06.233Z,99577.89
2022-11-27T15:42:28.351Z,99574.77
2022-11-27T15:47:58.310Z,99574.33
2022-11-27T15:53:20.189Z,99572.58
2022-11-27T15:58:42.731Z,99571.86
2022-11-27T16:04:05.085Z,99571.73
2022-11-27T16:09:27.263Z,99565.42
2022-11-27T16:14:49.223Z,99557.11
2022-11-27T16:20:11.599Z,99553.67
2022-11-27T16:25:33.326Z,99552.43
2022-11-27T16:30:57.080Z,99552.41
2022-11-27T16:36:20.564Z,99541.47
2022-11-27T16:41:42.290Z,99538.86
2022-11-27T16:47:05.346Z,99535.32
2022-11-27T16:52:27.748Z,99528.71
2022-11-27T16:57:49.444Z,99521.98
2022-11-27T17:03:11.551Z,99520.00
2022-11-27T17:08:33.675Z,99525.19
2022-11-27T17:14:01.402Z,99520.20
2022-11-27T17:19:24.127Z,99517.87
2022-11-27T17:24:45.893Z,99511.18
2022-11-27T17:30:09.291Z,99509.36
2022-11-27T17:35:30.992Z,99505.90
2022-11-27T17:40:53.297Z,99508.05
2022-11-27T17:46:21.480Z,99505.65
2022-11-27T17:51:44.959Z,99504.33
2022-11-27T17:57:08.531Z,99494.20
2022-11-27T18:02:30.320Z,99499.09
2022-11-27T18:07:53.446Z,99503.88
2022-11-27T18:13:15.897Z,99506.25
2022-11-27T18:18:38.484Z,99504.99
2022-11-27T18:29:45.133Z,99500.08
2022-11-27T18:35:07.533Z,99488.63
2022-11-27T18:40:29.359Z,99480.42
2022-11-27T18:45:52.810Z,99476.73
2022-11-27T18:51:20.912Z,99467.56
2022-11-27T18:56:43.127Z,99458.80
2022-11-27T19:02:05.335Z,99458.29
2022-11-27T19:07:28.175Z,99450.69
2022-11-27T19:12:50.409Z,99442.11
2022-11-27T19:18:13.093Z,99430.91
2022-11-27T19:23:39.109Z,99428.55
2022-11-27T19:29:06.510Z,99419.68
2022-11-27T19:34:29.166Z,99422.23
2022-11-27T19:39:51.497Z,99421.46
2022-11-27T19:45:13.252Z,99420.51
2022-11-27T19:50:35.005Z,99418.22
2022-11-27T19:55:57.022Z,99416.61
2022-11-27T20:01:20.491Z,99414.92
2022-11-27T20:06:42.680Z,99416.91
2022-11-27T20:12:04.950Z,99412.69
2022-11-27T20:17:27.927Z,99415.71
2022-11-27T20:22:50.471Z,99417.20
2022-11-27T20:28:13.133Z,99415.58
2022-11-27T20:33:35.953Z,99413.44
2022-11-27T20:39:01.922Z,99409.52
2022-11-27T20:44:24.472Z,99406.43
2022-11-27T20:49:47.337Z,99405.90
2022-11-27T20:55:09.209Z,99405.64
2022-11-27T21:00:31.311Z,99397.47
2022-11-27T21:05:55.072Z,99397.87
2022-11-27T21:11:25.339Z,99397.06
2022-11-27T21:16:49.076Z,99395.06
2022-11-27T21:22:11.276Z,99395.03
2022-11-27T21:27:32.858Z,99384.99
2022-11-27T21:32:54.749Z,99374.40
2022-11-27T21:38:18.559Z,99364.09
2022-11-27T21:43:41.219Z,99362.45
2022-11-27T21:49:03.159Z,99350.23
2022-11-27T21:54:24.814Z,99337.32
2022-11-27T21:59:46.347Z,99319.16
2022-11-27T22:05:09.041Z,99308.23
2022-11-27T22:10:30.665Z,99307.72
2022-11-27T22:15:52.595Z,99305.16
2022-11-27T22:21:16.230Z,99304.20
2022-11-27T22:26:38.359Z,99306.27
2022-11-27T22:32:00.190Z,99303.44
2022-11-27T22:37:22.034Z,99297.84
2022-11-27T22:42:43.904Z,99295.86
2022-11-27T22:48:06.380Z,99297.56
2022-11-27T22:53:28.178Z,99294.51
2022-11-27T22:59:06.033Z,99292.48
2022-11-27T23:04:36.551Z,99296.39
2022-11-27T23:09:58.582Z,99287.35
2022-11-27T23:15:20.710Z,99289.66
2022-11-27T23:20:43.447Z,99288.80
2022-11-27T23:26:06.177Z,99289.67
2022-11-27T23:31:31.416Z,99287.50
2022-11-27T23:36:53.646Z,99289.80
2022-11-27T23:42:15.493Z,99296.50
2022-11-27T23:47:37.509Z,99298.50
2022-11-27T23:52:59.434Z,99293.31
2022-11-27T23:58:21.564Z,99284.48
